sensor_id;sensor_type;location;lat;lon;timestamp;pressure;altitude;pressure_sealevel;temperature;humidity
9141;BME280;46330;50.822;7.126;2023-03-14T00:00:29;98585.72;;;10.89;82.04
9141;BME280;46330;50.822;7.126;2023-03-14T00:02:57;98584.75;;;10.90;82.43
9141;BME280;46330;50.822;7.126;2023-03-14T00:05:25;98589.56;;;10.82;82.60
9141;BME280;46330;50.822;7.126;2023-03-14T00:07:53;98590.66;;;10.78;82.89
9141;BME280;46330;50.822;7.126;2023-03-14T00:10:21;98589.91;;;10.76;82.98
9141;BME280;46330;50.822;7.126;2023-03-14T00:12:49;98596.38;;;10.69;83.46
9141;BME280;46330;50.822;7.126;2023-03-14T00:15:19;98620.91;;;10.66;83.15
9141;BME280;46330;50.822;7.126;2023-03-14T00:17:47;98636.50;;;10.68;82.68
9141;BME280;46330;50.822;7.126;2023-03-14T00:20:16;98628.38;;;10.74;82.60
9141;BME280;46330;50.822;7.126;2023-03-14T00:22:43;98617.13;;;10.72;82.28
9141;BME280;46330;50.822;7.126;2023-03-14T00:25:12;98618.81;;;10.73;82.68
9141;BME280;46330;50.822;7.126;2023-03-14T00:27:40;98630.13;;;10.73;82.27
9141;BME280;46330;50.822;7.126;2023-03-14T00:30:09;98630.97;;;10.74;81.99
9141;BME280;46330;50.822;7.126;2023-03-14T00:32:39;98625.81;;;10.72;82.48
9141;BME280;46330;50.822;7.126;2023-03-14T00:35:08;98604.72;;;10.75;82.25
9141;BME280;46330;50.822;7.126;2023-03-14T00:37:37;98606.84;;;10.85;81.46
9141;BME280;46330;50.822;7.126;2023-03-14T00:40:06;98617.59;;;10.80;81.78
9141;BME280;46330;50.822;7.126;2023-03-14T00:42:34;98618.34;;;10.82;81.61
9141;BME280;46330;50.822;7.126;2023-03-14T00:45:05;98614.81;;;10.83;81.66
9141;BME280;46330;50.822;7.126;2023-03-14T00:47:34;98606.69;;;10.88;81.82
9141;BME280;46330;50.822;7.126;2023-03-14T00:50:04;98602.75;;;10.96;81.02
9141;BME280;46330;50.822;7.126;2023-03-14T00:52:33;98605.03;;;11.02;80.23
9141;BME280;46330;50.822;7.126;2023-03-14T00:55:01;98603.78;;;11.09;80.30
9141;BME280;46330;50.822;7.126;2023-03-14T00:57:29;98607.25;;;11.10;80.24
9141;BME280;46330;50.822;7.126;2023-03-14T00:59:57;98608.94;;;11.11;80.12
9141;BME280;46330;50.822;7.126;2023-03-14T01:02:26;98612.09;;;11.17;79.61
9141;BME280;46330;50.822;7.126;2023-03-14T01:04:55;98614.00;;;11.14;80.20
9141;BME280;46330;50.822;7.126;2023-03-14T01:07:25;98606.75;;;11.19;79.86
9141;BME280;46330;50.822;7.126;2023-03-14T01:09:53;98610.22;;;11.19;79.75
9141;BME280;46330;50.822;7.126;2023-03-14T01:12:22;98609.28;;;11.20;79.33
9141;BME280;46330;50.822;7.126;2023-03-14T01:14:50;98623.13;;;11.22;79.58
9141;BME280;46330;50.822;7.126;2023-03-14T01:17:18;98615.44;;;11.19;79.67
9141;BME280;46330;50.822;7.126;2023-03-14T01:19:46;98616.97;;;11.23;79.40
9141;BME280;46330;50.822;7.126;2023-03-14T01:22:15;98623.13;;;11.22;79.52
9141;BME280;46330;50.822;7.126;2023-03-14T01:24:44;98602.38;;;11.19;79.79
9141;BME280;46330;50.822;7.126;2023-03-14T01:27:12;98605.22;;;11.15;79.95
9141;BME280;46330;50.822;7.126;2023-03-14T01:29:40;98599.22;;;11.13;79.76
9141;BME280;46330;50.822;7.126;2023-03-14T01:32:09;98594.69;;;11.16;79.56
9141;BME280;46330;50.822;7.126;2023-03-14T01:34:37;98602.59;;;11.15;80.93
9141;BME280;46330;50.822;7.126;2023-03-14T01:37:05;98602.94;;;11.09;82.71
9141;BME280;46330;50.822;7.126;2023-03-14T01:39:36;98609.09;;;10.92;84.79
9141;BME280;46330;50.822;7.126;2023-03-14T01:42:05;98613.69;;;10.87;85.19
9141;BME280;46330;50.822;7.126;2023-03-14T01:44:48;98597.63;;;10.77;86.30
9141;BME280;46330;50.822;7.126;2023-03-14T01:47:17;98604.91;;;10.72;86.69
9141;BME280;46330;50.822;7.126;2023-03-14T01:49:46;98598.66;;;10.75;86.88
9141;BME280;46330;50.822;7.126;2023-03-14T01:52:20;98595.44;;;10.70;87.72
9141;BME280;46330;50.822;7.126;2023-03-14T01:54:53;98591.06;;;10.70;88.14
9141;BME280;46330;50.822;7.126;2023-03-14T01:57:26;98580.09;;;10.64;88.83
9141;BME280;46330;50.822;7.126;2023-03-14T01:59:59;98577.78;;;10.58;88.68
9141;BME280;46330;50.822;7.126;2023-03-14T02:02:39;98592.84;;;10.53;90.00
9141;BME280;46330;50.822;7.126;2023-03-14T02:05:12;98624.63;;;10.45;94.45
9141;BME280;46330;50.822;7.126;2023-03-14T02:07:47;98616.72;;;9.94;96.91
9141;BME280;46330;50.822;7.126;2023-03-14T02:10:23;98614.81;;;9.26;92.08
9141;BME280;46330;50.822;7.126;2023-03-14T02:12:56;98606.78;;;9.11;92.50
9141;BME280;46330;50.822;7.126;2023-03-14T02:15:45;98591.44;;;9.05;95.33
9141;BME280;46330;50.822;7.126;2023-03-14T02:18:36;98586.13;;;9.07;97.18
9141;BME280;46330;50.822;7.126;2023-03-14T02:21:41;98585.00;;;9.12;97.44
9141;BME280;46330;50.822;7.126;2023-03-14T02:24:19;98582.59;;;9.08;98.13
9141;BME280;46330;50.822;7.126;2023-03-14T02:27:09;98586.78;;;9.12;99.04
9141;BME280;46330;50.822;7.126;2023-03-14T02:29:48;98585.50;;;9.21;99.44
9141;BME280;46330;50.822;7.126;2023-03-14T02:32:19;98584.34;;;9.26;99.88
9141;BME280;46330;50.822;7.126;2023-03-14T02:34:51;98569.25;;;9.33;99.86
9141;BME280;46330;50.822;7.126;2023-03-14T02:37:23;98562.50;;;9.29;100.00
9141;BME280;46330;50.822;7.126;2023-03-14T02:39:52;98560.59;;;9.32;100.00
9141;BME280;46330;50.822;7.126;2023-03-14T02:42:22;98555.81;;;9.23;100.00
9141;BME280;46330;50.822;7.126;2023-03-14T02:44:53;98543.34;;;9.11;100.00
9141;BME280;46330;50.822;7.126;2023-03-14T02:47:27;98545.34;;;8.87;100.00
9141;BME280;46330;50.822;7.126;2023-03-14T02:50:01;98542.66;;;8.89;100.00
9141;BME280;46330;50.822;7.126;2023-03-14T02:52:30;98531.88;;;8.96;100.00
9141;BME280;46330;50.822;7.126;2023-03-14T02:54:58;98528.28;;;8.99;100.00
9141;BME280;46330;50.822;7.126;2023-03-14T02:57:27;98521.66;;;8.92;100.00
9141;BME280;46330;50.822;7.126;2023-03-14T02:59:58;98513.97;;;8.89;100.00
9141;BME280;46330;50.822;7.126;2023-03-14T03:02:31;98523.00;;;8.82;100.00
9141;BME280;46330;50.822;7.126;2023-03-14T03:04:59;98519.34;;;8.86;100.00
9141;BME280;46330;50.822;7.126;2023-03-14T03:07:27;98519.94;;;8.91;100.00
9141;BME280;46330;50.822;7.126;2023-03-14T03:09:56;98517.34;;;8.91;100.00
9141;BME280;46330;50.822;7.126;2023-03-14T03:12:24;98525.16;;;8.91;100.00
9141;BME280;46330;50.822;7.126;2023-03-14T03:14:53;98520.94;;;8.88;100.00
9141;BME280;46330;50.822;7.126;2023-03-14T03:17:22;98517.44;;;8.89;100.00
9141;BME280;46330;50.822;7.126;2023-03-14T03:19:49;98521.66;;;8.92;100.00
9141;BME280;46330;50.822;7.126;2023-03-14T03:22:17;98515.25;;;8.99;100.00
9141;BME280;46330;50.822;7.126;2023-03-14T03:24:45;98513.41;;;9.01;100.00
9141;BME280;46330;50.822;7.126;2023-03-14T03:27:13;98515.81;;;9.05;100.00
9141;BME280;46330;50.822;7.126;2023-03-14T03:29:41;98518.56;;;9.02;100.00
9141;BME280;46330;50.822;7.126;2023-03-14T03:32:11;98528.91;;;9.04;100.00
9141;BME280;46330;50.822;7.126;2023-03-14T03:34:39;98520.66;;;8.94;100.00
9141;BME280;46330;50.822;7.126;2023-03-14T03:37:07;98516.84;;;9.01;100.00
9141;BME280;46330;50.822;7.126;2023-03-14T03:39:39;98517.31;;;9.09;100.00
9141;BME280;46330;50.822;7.126;2023-03-14T03:42:07;98525.84;;;9.13;100.00
9141;BME280;46330;50.822;7.126;2023-03-14T03:44:35;98511.75;;;9.17;100.00
9141;BME280;46330;50.822;7.126;2023-03-14T03:47:04;98504.56;;;9.22;99.71
9141;BME280;46330;50.822;7.126;2023-03-14T03:49:34;98506.09;;;9.26;98.90
9141;BME280;46330;50.822;7.126;2023-03-14T03:52:02;98511.78;;;9.34;98.66
9141;BME280;46330;50.822;7.126;2023-03-14T03:54:30;98508.13;;;9.38;97.60
9141;BME280;46330;50.822;7.126;2023-03-14T03:56:59;98513.13;;;9.43;97.00
9141;BME280;46330;50.822;7.126;2023-03-14T03:59:27;98510.13;;;9.50;96.88
9141;BME280;46330;50.822;7.126;2023-03-14T04:01:55;98510.06;;;9.52;96.80
9141;BME280;46330;50.822;7.126;2023-03-14T04:04:23;98504.69;;;9.55;96.82
9141;BME280;46330;50.822;7.126;2023-03-14T04:06:54;98507.16;;;9.58;95.95
9141;BME280;46330;50.822;7.126;2023-03-14T04:09:22;98501.06;;;9.57;96.43
9141;BME280;46330;50.822;7.126;2023-03-14T04:12:08;98500.63;;;9.66;95.56
9141;BME280;46330;50.822;7.126;2023-03-14T04:15:13;98492.09;;;9.63;95.95
9141;BME280;46330;50.822;7.126;2023-03-14T04:17:45;98494.66;;;9.64;95.38
9141;BME280;46330;50.822;7.126;2023-03-14T04:20:15;98501.38;;;9.68;94.18
9141;BME280;46330;50.822;7.126;2023-03-14T04:22:44;98500.31;;;9.72;94.18
9141;BME280;46330;50.822;7.126;2023-03-14T04:25:12;98494.94;;;9.76;94.04
9141;BME280;46330;50.822;7.126;2023-03-14T04:27:45;98503.69;;;9.74;95.10
9141;BME280;46330;50.822;7.126;2023-03-14T04:30:20;98489.66;;;9.77;94.08
9141;BME280;46330;50.822;7.126;2023-03-14T04:33:01;98488.56;;;9.81;93.00
9141;BME280;46330;50.822;7.126;2023-03-14T04:35:32;98487.50;;;9.85;92.71
9141;BME280;46330;50.822;7.126;2023-03-14T04:38:07;98481.50;;;9.83;93.30
9141;BME280;46330;50.822;7.126;2023-03-14T04:40:36;98469.16;;;9.87;93.74
9141;BME280;46330;50.822;7.126;2023-03-14T04:43:06;98478.06;;;9.83;93.47
9141;BME280;46330;50.822;7.126;2023-03-14T04:45:34;98480.72;;;9.81;93.66
9141;BME280;46330;50.822;7.126;2023-03-14T04:48:05;98469.31;;;9.84;94.85
9141;BME280;46330;50.822;7.126;2023-03-14T04:50:33;98461.47;;;9.84;94.56
9141;BME280;46330;50.822;7.126;2023-03-14T04:53:01;98469.69;;;9.76;95.80
9141;BME280;46330;50.822;7.126;2023-03-14T04:55:31;98470.91;;;9.69;96.62
9141;BME280;46330;50.822;7.126;2023-03-14T04:57:59;98462.31;;;9.67;97.49
9141;BME280;46330;50.822;7.126;2023-03-14T05:00:27;98454.94;;;9.58;98.04
9141;BME280;46330;50.822;7.126;2023-03-14T05:03:11;98456.63;;;9.59;98.64
9141;BME280;46330;50.822;7.126;2023-03-14T05:06:11;98450.59;;;9.58;98.19
9141;BME280;46330;50.822;7.126;2023-03-14T05:09:03;98445.28;;;9.60;99.24
9141;BME280;46330;50.822;7.126;2023-03-14T05:11:33;98433.38;;;9.54;98.36
9141;BME280;46330;50.822;7.126;2023-03-14T05:14:31;98435.25;;;9.52;100.00
9141;BME280;46330;50.822;7.126;2023-03-14T05:17:19;98430.06;;;9.51;100.00
9141;BME280;46330;50.822;7.126;2023-03-14T05:19:47;98418.94;;;9.47;100.00
9141;BME280;46330;50.822;7.126;2023-03-14T05:22:33;98420.56;;;9.50;99.90
9141;BME280;46330;50.822;7.126;2023-03-14T05:25:19;98418.88;;;9.49;99.99
9141;BME280;46330;50.822;7.126;2023-03-14T05:27:49;98408.44;;;9.49;99.86
9141;BME280;46330;50.822;7.126;2023-03-14T05:30:19;98403.91;;;9.52;98.66
9141;BME280;46330;50.822;7.126;2023-03-14T05:32:50;98407.44;;;9.51;98.57
9141;BME280;46330;50.822;7.126;2023-03-14T05:35:37;98398.75;;;9.51;97.97
9141;BME280;46330;50.822;7.126;2023-03-14T05:38:27;98418.03;;;9.48;97.83
9141;BME280;46330;50.822;7.126;2023-03-14T05:41:13;98409.31;;;9.49;98.37
9141;BME280;46330;50.822;7.126;2023-03-14T05:44:09;98405.06;;;9.47;98.18
9141;BME280;46330;50.822;7.126;2023-03-14T05:46:49;98410.91;;;9.52;95.99
9141;BME280;46330;50.822;7.126;2023-03-14T05:49:46;98410.75;;;9.55;95.40
9141;BME280;46330;50.822;7.126;2023-03-14T05:52:53;98415.88;;;9.56;96.12
9141;BME280;46330;50.822;7.126;2023-03-14T05:55:43;98429.06;;;9.53;95.51
9141;BME280;46330;50.822;7.126;2023-03-14T05:58:37;98418.56;;;9.55;95.95
9141;BME280;46330;50.822;7.126;2023-03-14T06:01:26;98414.34;;;9.52;96.22
9141;BME280;46330;50.822;7.126;2023-03-14T06:04:24;98398.88;;;9.49;96.26
9141;BME280;46330;50.822;7.126;2023-03-14T06:06:56;98410.13;;;9.50;96.25
9141;BME280;46330;50.822;7.126;2023-03-14T06:09:24;98416.97;;;9.52;96.52
9141;BME280;46330;50.822;7.126;2023-03-14T06:11:55;98406.59;;;9.51;96.70
9141;BME280;46330;50.822;7.126;2023-03-14T06:14:24;98400.53;;;9.50;96.92
9141;BME280;46330;50.822;7.126;2023-03-14T06:16:54;98401.53;;;9.48;98.77
9141;BME280;46330;50.822;7.126;2023-03-14T06:19:25;98391.34;;;9.43;99.02
9141;BME280;46330;50.822;7.126;2023-03-14T06:21:53;98395.78;;;9.41;99.66
9141;BME280;46330;50.822;7.126;2023-03-14T06:24:25;98388.81;;;9.42;99.64
9141;BME280;46330;50.822;7.126;2023-03-14T06:26:53;98385.28;;;9.43;98.27
9141;BME280;46330;50.822;7.126;2023-03-14T06:29:21;98385.19;;;9.44;98.18
9141;BME280;46330;50.822;7.126;2023-03-14T06:31:49;98391.09;;;9.48;98.30
9141;BME280;46330;50.822;7.126;2023-03-14T06:34:19;98389.19;;;9.51;98.26
9141;BME280;46330;50.822;7.126;2023-03-14T06:36:47;98385.50;;;9.55;97.28
9141;BME280;46330;50.822;7.126;2023-03-14T06:39:15;98390.47;;;9.60;98.02
9141;BME280;46330;50.822;7.126;2023-03-14T06:41:47;98391.47;;;9.57;97.35
9141;BME280;46330;50.822;7.126;2023-03-14T06:44:16;98394.09;;;9.57;97.75
9141;BME280;46330;50.822;7.126;2023-03-14T06:46:44;98386.94;;;9.61;97.42
9141;BME280;46330;50.822;7.126;2023-03-14T06:49:12;98386.03;;;9.62;96.67
9141;BME280;46330;50.822;7.126;2023-03-14T06:51:42;98389.06;;;9.70;96.78
9141;BME280;46330;50.822;7.126;2023-03-14T06:54:11;98395.91;;;9.72;97.19
9141;BME280;46330;50.822;7.126;2023-03-14T06:56:40;98398.50;;;9.72;96.45
9141;BME280;46330;50.822;7.126;2023-03-14T06:59:09;98398.13;;;9.80;96.48
9141;BME280;46330;50.822;7.126;2023-03-14T07:01:37;98392.31;;;9.91;94.35
9141;BME280;46330;50.822;7.126;2023-03-14T07:04:09;98397.41;;;10.09;94.19
9141;BME280;46330;50.822;7.126;2023-03-14T07:06:43;98402.66;;;10.09;94.24
9141;BME280;46330;50.822;7.126;2023-03-14T07:09:13;98394.19;;;10.21;93.05
9141;BME280;46330;50.822;7.126;2023-03-14T07:11:49;98407.97;;;10.08;92.86
9141;BME280;46330;50.822;7.126;2023-03-14T07:14:18;98407.41;;;10.18;93.26
9141;BME280;46330;50.822;7.126;2023-03-14T07:16:48;98408.03;;;10.23;93.80
9141;BME280;46330;50.822;7.126;2023-03-14T07:19:16;98396.09;;;10.02;92.95
9141;BME280;46330;50.822;7.126;2023-03-14T07:21:46;98412.94;;;10.12;93.28
9141;BME280;46330;50.822;7.126;2023-03-14T07:24:19;98416.88;;;10.21;91.98
9141;BME280;46330;50.822;7.126;2023-03-14T07:26:48;98414.03;;;10.41;91.23
9141;BME280;46330;50.822;7.126;2023-03-14T07:29:16;98418.75;;;10.82;89.20
9141;BME280;46330;50.822;7.126;2023-03-14T07:31:44;98419.28;;;11.18;86.39
9141;BME280;46330;50.822;7.126;2023-03-14T07:34:17;98424.75;;;11.29;86.36
9141;BME280;46330;50.822;7.126;2023-03-14T07:36:48;98422.78;;;11.62;85.37
9141;BME280;46330;50.822;7.126;2023-03-14T07:39:16;98432.63;;;11.43;85.53
9141;BME280;46330;50.822;7.126;2023-03-14T07:41:44;98426.72;;;11.40;86.86
9141;BME280;46330;50.822;7.126;2023-03-14T07:44:30;98425.50;;;11.31;86.18
9141;BME280;46330;50.822;7.126;2023-03-14T07:46:58;98432.84;;;11.24;86.58
9141;BME280;46330;50.822;7.126;2023-03-14T07:49:26;98443.38;;;11.39;85.63
9141;BME280;46330;50.822;7.126;2023-03-14T07:51:55;98447.75;;;11.08;86.57
9141;BME280;46330;50.822;7.126;2023-03-14T07:54:23;98447.06;;;11.20;86.35
9141;BME280;46330;50.822;7.126;2023-03-14T07:56:51;98446.06;;;11.37;85.71
9141;BME280;46330;50.822;7.126;2023-03-14T07:59:20;98443.53;;;11.51;85.93
9141;BME280;46330;50.822;7.126;2023-03-14T08:01:48;98441.69;;;12.25;83.59
9141;BME280;46330;50.822;7.126;2023-03-14T08:04:16;98444.19;;;11.84;83.55
9141;BME280;46330;50.822;7.126;2023-03-14T08:06:44;98443.72;;;12.06;83.22
9141;BME280;46330;50.822;7.126;2023-03-14T08:09:13;98439.50;;;12.60;80.86
9141;BME280;46330;50.822;7.126;2023-03-14T08:11:42;98433.50;;;12.58;79.58
9141;BME280;46330;50.822;7.126;2023-03-14T08:14:09;98449.03;;;12.75;80.27
9141;BME280;46330;50.822;7.126;2023-03-14T08:16:38;98438.50;;;12.34;81.85
9141;BME280;46330;50.822;7.126;2023-03-14T08:19:06;98457.50;;;12.24;81.39
9141;BME280;46330;50.822;7.126;2023-03-14T08:21:35;98442.72;;;12.23;81.12
9141;BME280;46330;50.822;7.126;2023-03-14T08:24:03;98442.41;;;12.27;82.33
9141;BME280;46330;50.822;7.126;2023-03-14T08:26:32;98445.97;;;12.12;82.38
9141;BME280;46330;50.822;7.126;2023-03-14T08:29:00;98461.44;;;12.31;82.72
9141;BME280;46330;50.822;7.126;2023-03-14T08:31:29;98452.53;;;12.19;81.87
9141;BME280;46330;50.822;7.126;2023-03-14T08:33:58;98460.03;;;12.25;82.82
9141;BME280;46330;50.822;7.126;2023-03-14T08:36:26;98462.38;;;12.16;82.69
9141;BME280;46330;50.822;7.126;2023-03-14T08:38:54;98458.16;;;12.13;81.92
9141;BME280;46330;50.822;7.126;2023-03-14T08:41:23;98456.28;;;12.01;81.58
9141;BME280;46330;50.822;7.126;2023-03-14T08:43:53;98459.44;;;11.92;79.86
9141;BME280;46330;50.822;7.126;2023-03-14T08:46:21;98456.94;;;12.05;80.95
9141;BME280;46330;50.822;7.126;2023-03-14T08:48:49;98457.22;;;12.00;81.40
9141;BME280;46330;50.822;7.126;2023-03-14T08:51:17;98459.16;;;11.97;81.01
9141;BME280;46330;50.822;7.126;2023-03-14T08:53:45;98464.50;;;12.09;82.46
9141;BME280;46330;50.822;7.126;2023-03-14T08:56:12;98454.13;;;12.22;83.14
9141;BME280;46330;50.822;7.126;2023-03-14T08:58:40;98453.84;;;12.12;82.02
9141;BME280;46330;50.822;7.126;2023-03-14T09:01:10;98460.50;;;12.04;81.79
9141;BME280;46330;50.822;7.126;2023-03-14T09:03:38;98472.63;;;11.91;82.50
9141;BME280;46330;50.822;7.126;2023-03-14T09:06:08;98482.13;;;11.77;84.36
9141;BME280;46330;50.822;7.126;2023-03-14T09:08:36;98475.41;;;11.73;86.10
9141;BME280;46330;50.822;7.126;2023-03-14T09:11:07;98477.94;;;11.75;84.71
9141;BME280;46330;50.822;7.126;2023-03-14T09:13:35;98490.94;;;11.76;85.64
9141;BME280;46330;50.822;7.126;2023-03-14T09:16:04;98488.16;;;11.64;89.06
9141;BME280;46330;50.822;7.126;2023-03-14T09:18:33;98494.53;;;11.44;91.24
9141;BME280;46330;50.822;7.126;2023-03-14T09:21:01;98514.72;;;11.42;92.49
9141;BME280;46330;50.822;7.126;2023-03-14T09:23:30;98505.19;;;11.25;94.22
9141;BME280;46330;50.822;7.126;2023-03-14T09:25:58;98513.00;;;11.11;95.24
9141;BME280;46330;50.822;7.126;2023-03-14T09:28:27;98516.94;;;11.18;95.08
9141;BME280;46330;50.822;7.126;2023-03-14T09:30:55;98521.59;;;11.13;93.93
9141;BME280;46330;50.822;7.126;2023-03-14T09:33:23;98528.50;;;11.30;95.12
9141;BME280;46330;50.822;7.126;2023-03-14T09:35:52;98517.88;;;11.17;96.41
9141;BME280;46330;50.822;7.126;2023-03-14T09:38:20;98528.97;;;11.37;97.00
9141;BME280;46330;50.822;7.126;2023-03-14T09:40:49;98529.66;;;11.24;97.39
9141;BME280;46330;50.822;7.126;2023-03-14T09:43:19;98541.66;;;11.28;97.55
9141;BME280;46330;50.822;7.126;2023-03-14T09:45:50;98548.59;;;11.14;98.31
9141;BME280;46330;50.822;7.126;2023-03-14T09:48:21;98551.91;;;11.17;98.52
9141;BME280;46330;50.822;7.126;2023-03-14T09:50:51;98557.63;;;11.08;100.00
9141;BME280;46330;50.822;7.126;2023-03-14T09:53:25;98559.28;;;10.94;100.00
9141;BME280;46330;50.822;7.126;2023-03-14T09:55:54;98593.47;;;10.91;100.00
9141;BME280;46330;50.822;7.126;2023-03-14T09:58:26;98650.34;;;10.18;100.00
9141;BME280;46330;50.822;7.126;2023-03-14T10:00:56;98661.59;;;9.10;100.00
9141;BME280;46330;50.822;7.126;2023-03-14T10:03:29;98676.16;;;8.77;100.00
9141;BME280;46330;50.822;7.126;2023-03-14T10:05:59;98680.00;;;8.68;100.00
9141;BME280;46330;50.822;7.126;2023-03-14T10:08:28;98698.78;;;8.56;100.00
9141;BME280;46330;50.822;7.126;2023-03-14T10:10:56;98729.31;;;8.52;100.00
9141;BME280;46330;50.822;7.126;2023-03-14T10:13:27;98734.78;;;8.46;100.00
9141;BME280;46330;50.822;7.126;2023-03-14T10:15:59;98745.25;;;8.45;100.00
9141;BME280;46330;50.822;7.126;2023-03-14T10:18:29;98761.59;;;8.27;100.00
9141;BME280;46330;50.822;7.126;2023-03-14T10:21:16;98766.53;;;8.34;100.00
9141;BME280;46330;50.822;7.126;2023-03-14T10:23:46;98772.88;;;8.27;100.00
9141;BME280;46330;50.822;7.126;2023-03-14T10:26:17;98792.97;;;8.24;100.00
9141;BME280;46330;50.822;7.126;2023-03-14T10:28:47;98790.50;;;8.42;100.00
9141;BME280;46330;50.822;7.126;2023-03-14T10:31:18;98805.91;;;8.48;100.00
9141;BME280;46330;50.822;7.126;2023-03-14T10:33:58;98817.41;;;8.64;100.00
9141;BME280;46330;50.822;7.126;2023-03-14T10:36:27;98843.50;;;8.41;100.00
9141;BME280;46330;50.822;7.126;2023-03-14T10:39:22;98846.56;;;8.31;100.00
9141;BME280;46330;50.822;7.126;2023-03-14T10:41:53;98852.69;;;8.28;100.00
9141;BME280;46330;50.822;7.126;2023-03-14T10:44:24;98872.56;;;8.07;100.00
9141;BME280;46330;50.822;7.126;2023-03-14T10:46:56;98865.66;;;8.06;100.00
9141;BME280;46330;50.822;7.126;2023-03-14T10:49:28;98879.66;;;8.04;100.00
9141;BME280;46330;50.822;7.126;2023-03-14T10:52:02;98881.69;;;7.96;100.00
9141;BME280;46330;50.822;7.126;2023-03-14T10:54:31;98890.66;;;8.12;100.00
9141;BME280;46330;50.822;7.126;2023-03-14T10:57:00;98892.75;;;8.02;100.00
9141;BME280;46330;50.822;7.126;2023-03-14T10:59:35;98900.44;;;8.05;100.00
9141;BME280;46330;50.822;7.126;2023-03-14T11:02:10;98901.22;;;8.07;100.00
9141;BME280;46330;50.822;7.126;2023-03-14T11:04:55;98900.81;;;7.95;100.00
9141;BME280;46330;50.822;7.126;2023-03-14T11:07:34;98911.19;;;7.96;100.00
9141;BME280;46330;50.822;7.126;2023-03-14T11:10:12;98921.41;;;8.01;100.00
9141;BME280;46330;50.822;7.126;2023-03-14T11:12:54;98939.13;;;7.91;100.00
9141;BME280;46330;50.822;7.126;2023-03-14T11:15:32;98939.56;;;7.79;100.00
9141;BME280;46330;50.822;7.126;2023-03-14T11:21:13;98958.69;;;8.03;100.00
9141;BME280;46330;50.822;7.126;2023-03-14T11:23:49;98963.69;;;8.07;100.00
9141;BME280;46330;50.822;7.126;2023-03-14T11:26:30;98972.78;;;8.21;100.00
9141;BME280;46330;50.822;7.126;2023-03-14T11:29:09;98965.94;;;8.18;100.00
9141;BME280;46330;50.822;7.126;2023-03-14T11:31:40;98969.91;;;8.28;100.00
9141;BME280;46330;50.822;7.126;2023-03-14T11:34:16;98968.56;;;8.41;99.98
9141;BME280;46330;50.822;7.126;2023-03-14T11:36:50;98976.59;;;8.35;100.00
9141;BME280;46330;50.822;7.126;2023-03-14T11:39:20;98978.81;;;8.46;100.00
9141;BME280;46330;50.822;7.126;2023-03-14T11:41:52;98982.47;;;8.17;100.00
9141;BME280;46330;50.822;7.126;2023-03-14T11:44:24;98992.66;;;8.23;100.00
9141;BME280;46330;50.822;7.126;2023-03-14T11:46:59;98987.78;;;8.62;97.79
9141;BME280;46330;50.822;7.126;2023-03-14T11:49:34;99002.53;;;9.06;96.96
9141;BME280;46330;50.822;7.126;2023-03-14T11:52:09;99008.41;;;8.90;96.58
9141;BME280;46330;50.822;7.126;2023-03-14T11:54:42;99012.28;;;9.01;96.70
9141;BME280;46330;50.822;7.126;2023-03-14T11:57:16;99019.59;;;8.70;95.29
9141;BME280;46330;50.822;7.126;2023-03-14T11:59:50;99026.03;;;8.83;95.33
9141;BME280;46330;50.822;7.126;2023-03-14T12:02:26;99093.88;;;8.58;95.92
9141;BME280;46330;50.822;7.126;2023-03-14T12:08:39;99117.06;;;6.47;100.00
9141;BME280;46330;50.822;7.126;2023-03-14T12:11:17;99114.59;;;6.42;100.00
9141;BME280;46330;50.822;7.126;2023-03-14T12:13:49;99124.34;;;6.65;100.00
9141;BME280;46330;50.822;7.126;2023-03-14T12:16:33;99116.72;;;6.90;100.00
9141;BME280;46330;50.822;7.126;2023-03-14T12:19:25;99130.66;;;6.87;100.00
9141;BME280;46330;50.822;7.126;2023-03-14T12:21:57;99138.00;;;7.02;100.00
9141;BME280;46330;50.822;7.126;2023-03-14T12:24:29;99159.50;;;7.08;100.00
9141;BME280;46330;50.822;7.126;2023-03-14T12:27:00;99162.38;;;6.98;100.00
9141;BME280;46330;50.822;7.126;2023-03-14T12:29:30;99172.38;;;7.12;100.00
9141;BME280;46330;50.822;7.126;2023-03-14T12:32:20;99182.78;;;7.12;100.00
9141;BME280;46330;50.822;7.126;2023-03-14T12:34:50;99194.34;;;7.02;100.00
9141;BME280;46330;50.822;7.126;2023-03-14T12:37:24;99197.66;;;6.76;100.00
9141;BME280;46330;50.822;7.126;2023-03-14T12:40:13;99207.63;;;6.91;100.00
9141;BME280;46330;50.822;7.126;2023-03-14T12:42:57;99226.81;;;6.87;100.00
9141;BME280;46330;50.822;7.126;2023-03-14T12:45:29;99233.84;;;6.82;100.00
9141;BME280;46330;50.822;7.126;2023-03-14T12:48:08;99245.88;;;6.86;100.00
9141;BME280;46330;50.822;7.126;2023-03-14T12:50:40;99254.56;;;6.85;100.00
9141;BME280;46330;50.822;7.126;2023-03-14T12:53:38;99252.09;;;6.81;100.00
9141;BME280;46330;50.822;7.126;2023-03-14T12:56:21;99260.28;;;6.98;100.00
9141;BME280;46330;50.822;7.126;2023-03-14T12:59:07;99269.72;;;7.02;100.00
9141;BME280;46330;50.822;7.126;2023-03-14T13:01:47;99272.28;;;7.03;100.00
9141;BME280;46330;50.822;7.126;2023-03-14T13:04:15;99278.47;;;6.99;97.84
9141;BME280;46330;50.822;7.126;2023-03-14T13:06:56;99284.69;;;7.25;98.78
9141;BME280;46330;50.822;7.126;2023-03-14T13:12:25;99304.84;;;7.17;98.63
9141;BME280;46330;50.822;7.126;2023-03-14T13:14:58;99309.09;;;7.19;97.04
9141;BME280;46330;50.822;7.126;2023-03-14T13:17:33;99306.47;;;7.21;97.32
9141;BME280;46330;50.822;7.126;2023-03-14T13:20:11;99321.13;;;7.23;97.43
9141;BME280;46330;50.822;7.126;2023-03-14T13:22:46;99327.53;;;7.10;93.99
9141;BME280;46330;50.822;7.126;2023-03-14T13:25:15;99339.50;;;7.17;94.52
9141;BME280;46330;50.822;7.126;2023-03-14T13:27:45;99348.41;;;7.09;91.59
9141;BME280;46330;50.822;7.126;2023-03-14T13:30:15;99355.59;;;6.97;90.42
9141;BME280;46330;50.822;7.126;2023-03-14T13:32:46;99364.03;;;7.07;91.88
9141;BME280;46330;50.822;7.126;2023-03-14T13:35:18;99366.75;;;7.02;92.33
9141;BME280;46330;50.822;7.126;2023-03-14T13:37:46;99379.06;;;6.96;93.56
9141;BME280;46330;50.822;7.126;2023-03-14T13:40:24;99385.75;;;7.06;94.84
9141;BME280;46330;50.822;7.126;2023-03-14T13:43:05;99393.38;;;7.12;97.68
9141;BME280;46330;50.822;7.126;2023-03-14T13:45:55;99399.97;;;7.25;98.50
9141;BME280;46330;50.822;7.126;2023-03-14T13:48:28;99409.00;;;7.44;98.59
9141;BME280;46330;50.822;7.126;2023-03-14T13:51:00;99408.16;;;7.44;96.46
9141;BME280;46330;50.822;7.126;2023-03-14T13:53:30;99411.72;;;7.40;96.49